sensor_id;sensor_type;location;lat;lon;timestamp;pressure;altitude;pressure_sealevel;temperature;humidity
73063;BME280;61230;46.328;19.972;2023-07-16T00:00:28;100437.72;;;22.46;71.80
73063;BME280;61230;46.328;19.972;2023-07-16T00:02:57;100399.16;;;22.16;72.72
73063;BME280;61230;46.328;19.972;2023-07-16T00:05:27;100444.47;;;22.24;73.62
73063;BME280;61230;46.328;19.972;2023-07-16T00:07:57;100449.16;;;22.35;72.62
73063;BME280;61230;46.328;19.972;2023-07-16T00:10:25;100446.94;;;22.25;73.45
73063;BME280;61230;46.328;19.972;2023-07-16T00:12:53;100436.59;;;22.29;73.19
73063;BME280;61230;46.328;19.972;2023-07-16T00:15:20;100434.56;;;22.24;73.31
73063;BME280;61230;46.328;19.972;2023-07-16T00:17:48;100432.50;;;22.26;72.85
73063;BME280;61230;46.328;19.972;2023-07-16T00:20:22;100437.94;;;22.13;73.73
73063;BME280;61230;46.328;19.972;2023-07-16T00:22:51;100442.22;;;22.21;73.42
73063;BME280;61230;46.328;19.972;2023-07-16T00:25:19;100439.38;;;22.16;73.44
73063;BME280;61230;46.328;19.972;2023-07-16T00:27:48;100437.75;;;22.08;74.39
73063;BME280;61230;46.328;19.972;2023-07-16T00:30:15;100432.16;;;22.16;73.62
73063;BME280;61230;46.328;19.972;2023-07-16T00:32:43;100432.16;;;22.16;74.21
73063;BME280;61230;46.328;19.972;2023-07-16T00:35:12;100436.47;;;22.17;73.79
73063;BME280;61230;46.328;19.972;2023-07-16T00:37:39;100432.09;;;22.23;73.56
73063;BME280;61230;46.328;19.972;2023-07-16T00:40:08;100387.75;;;21.96;73.48
73063;BME280;61230;46.328;19.972;2023-07-16T00:42:35;100429.47;;;22.16;73.67
73063;BME280;61230;46.328;19.972;2023-07-16T00:45:09;100389.00;;;21.93;73.86
73063;BME280;61230;46.328;19.972;2023-07-16T00:47:39;100427.91;;;22.02;75.15
73063;BME280;61230;46.328;19.972;2023-07-16T00:50:09;100433.28;;;21.96;75.13
73063;BME280;61230;46.328;19.972;2023-07-16T00:52:38;100421.75;;;21.95;75.12
73063;BME280;61230;46.328;19.972;2023-07-16T00:55:07;100426.69;;;21.98;75.25
73063;BME280;61230;46.328;19.972;2023-07-16T00:57:35;100428.97;;;21.95;75.83
73063;BME280;61230;46.328;19.972;2023-07-16T01:00:08;100416.63;;;21.81;76.52
73063;BME280;61230;46.328;19.972;2023-07-16T01:02:38;100416.91;;;21.66;77.57
73063;BME280;61230;46.328;19.972;2023-07-16T01:05:06;100411.75;;;21.71;76.89
73063;BME280;61230;46.328;19.972;2023-07-16T01:07:36;100415.28;;;21.65;77.29
73063;BME280;61230;46.328;19.972;2023-07-16T01:10:05;100413.81;;;21.69;77.12
73063;BME280;61230;46.328;19.972;2023-07-16T01:12:34;100412.12;;;21.74;77.22
73063;BME280;61230;46.328;19.972;2023-07-16T01:15:03;100415.22;;;21.78;76.82
73063;BME280;61230;46.328;19.972;2023-07-16T01:17:31;100408.19;;;21.77;77.08
73063;BME280;61230;46.328;19.972;2023-07-16T01:19:59;100410.09;;;21.70;78.59
73063;BME280;61230;46.328;19.972;2023-07-16T01:22:45;100406.25;;;21.53;79.38
73063;BME280;61230;46.328;19.972;2023-07-16T01:25:26;100406.00;;;21.61;79.16
73063;BME280;61230;46.328;19.972;2023-07-16T01:30:51;100406.25;;;21.59;80.44
73063;BME280;61230;46.328;19.972;2023-07-16T01:33:20;100402.31;;;21.62;80.09
73063;BME280;61230;46.328;19.972;2023-07-16T01:35:50;100404.00;;;21.56;80.79
73063;BME280;61230;46.328;19.972;2023-07-16T01:38:19;100405.25;;;21.54;80.79
73063;BME280;61230;46.328;19.972;2023-07-16T01:40:48;100403.75;;;21.58;80.94
73063;BME280;61230;46.328;19.972;2023-07-16T01:43:15;100403.34;;;21.61;81.20
73063;BME280;61230;46.328;19.972;2023-07-16T01:45:43;100397.56;;;21.57;81.29
73063;BME280;61230;46.328;19.972;2023-07-16T01:48:34;100399.06;;;21.47;81.76
73063;BME280;61230;46.328;19.972;2023-07-16T01:51:03;100401.97;;;21.45;82.36
73063;BME280;61230;46.328;19.972;2023-07-16T01:53:31;100361.06;;;21.25;82.08
73063;BME280;61230;46.328;19.972;2023-07-16T01:56:04;100398.88;;;21.42;82.93
73063;BME280;61230;46.328;19.972;2023-07-16T01:58:32;100389.00;;;21.42;82.84
73063;BME280;61230;46.328;19.972;2023-07-16T02:01:01;100390.44;;;21.45;82.51
73063;BME280;61230;46.328;19.972;2023-07-16T02:03:29;100390.22;;;21.46;83.02
73063;BME280;61230;46.328;19.972;2023-07-16T02:05:56;100396.81;;;21.44;83.53
73063;BME280;61230;46.328;19.972;2023-07-16T02:08:24;100357.59;;;21.05;84.44
73063;BME280;61230;46.328;19.972;2023-07-16T02:10:52;100351.84;;;21.08;84.40
73063;BME280;61230;46.328;19.972;2023-07-16T02:13:20;100351.63;;;21.03;85.69
73063;BME280;61230;46.328;19.972;2023-07-16T02:15:48;100388.44;;;21.20;86.34
73063;BME280;61230;46.328;19.972;2023-07-16T02:18:16;100388.66;;;21.12;87.09
73063;BME280;61230;46.328;19.972;2023-07-16T02:20:44;100350.62;;;20.91;86.88
73063;BME280;61230;46.328;19.972;2023-07-16T02:23:13;100392.00;;;21.08;88.36
73063;BME280;61230;46.328;19.972;2023-07-16T02:25:41;100379.44;;;21.08;88.55
73063;BME280;61230;46.328;19.972;2023-07-16T02:28:09;100383.97;;;21.08;88.98
73063;BME280;61230;46.328;19.972;2023-07-16T02:30:36;100385.41;;;21.10;89.19
73063;BME280;61230;46.328;19.972;2023-07-16T02:33:04;100388.06;;;21.10;89.47
73063;BME280;61230;46.328;19.972;2023-07-16T02:35:32;100370.59;;;20.88;90.52
73063;BME280;61230;46.328;19.972;2023-07-16T02:38:00;100392.00;;;20.88;91.79
73063;BME280;61230;46.328;19.972;2023-07-16T02:40:28;100395.50;;;20.89;91.92
73063;BME280;61230;46.328;19.972;2023-07-16T02:42:55;100393.00;;;20.94;92.06
73063;BME280;61230;46.328;19.972;2023-07-16T02:45:23;100397.31;;;20.95;92.27
73063;BME280;61230;46.328;19.972;2023-07-16T02:47:51;100399.56;;;20.98;92.29
73063;BME280;61230;46.328;19.972;2023-07-16T02:50:19;100401.03;;;20.94;92.64
73063;BME280;61230;46.328;19.972;2023-07-16T02:52:52;100398.56;;;20.92;92.96
73063;BME280;61230;46.328;19.972;2023-07-16T02:55:23;100361.38;;;20.71;92.69
73063;BME280;61230;46.328;19.972;2023-07-16T02:57:51;100398.38;;;20.94;92.77
73063;BME280;61230;46.328;19.972;2023-07-16T03:00:18;100401.47;;;20.91;93.48
73063;BME280;61230;46.328;19.972;2023-07-16T03:02:46;100398.38;;;20.87;94.35
73063;BME280;61230;46.328;19.972;2023-07-16T03:05:14;100392.00;;;20.82;94.41
73063;BME280;61230;46.328;19.972;2023-07-16T03:07:43;100354.78;;;20.47;95.62
73063;BME280;61230;46.328;19.972;2023-07-16T03:10:10;100399.81;;;20.77;96.14
73063;BME280;61230;46.328;19.972;2023-07-16T03:12:38;100399.41;;;20.73;95.98
73063;BME280;61230;46.328;19.972;2023-07-16T03:15:07;100396.31;;;20.76;96.19
73063;BME280;61230;46.328;19.972;2023-07-16T03:17:37;100394.66;;;20.75;96.12
73063;BME280;61230;46.328;19.972;2023-07-16T03:20:05;100395.31;;;20.77;96.47
73063;BME280;61230;46.328;19.972;2023-07-16T03:22:35;100395.09;;;20.79;96.86
73063;BME280;61230;46.328;19.972;2023-07-16T03:25:04;100407.63;;;20.78;96.99
73063;BME280;61230;46.328;19.972;2023-07-16T03:27:33;100400.84;;;20.69;97.89
73063;BME280;61230;46.328;19.972;2023-07-16T03:30:01;100406.00;;;20.71;98.04
73063;BME280;61230;46.328;19.972;2023-07-16T03:32:29;100405.78;;;20.72;98.37
73063;BME280;61230;46.328;19.972;2023-07-16T03:35:12;100376.19;;;20.54;99.46
73063;BME280;61230;46.328;19.972;2023-07-16T03:37:40;100399.63;;;20.72;99.03
73063;BME280;61230;46.328;19.972;2023-07-16T03:40:16;100407.44;;;20.67;100.00
73063;BME280;61230;46.328;19.972;2023-07-16T03:42:44;100409.50;;;20.64;100.00
73063;BME280;61230;46.328;19.972;2023-07-16T03:45:12;100373.09;;;20.44;100.00
73063;BME280;61230;46.328;19.972;2023-07-16T03:47:41;100414.44;;;20.74;100.00
73063;BME280;61230;46.328;19.972;2023-07-16T03:50:10;100413.63;;;20.80;100.00
73063;BME280;61230;46.328;19.972;2023-07-16T03:52:38;100415.25;;;20.88;100.00
73063;BME280;61230;46.328;19.972;2023-07-16T03:55:06;100413.37;;;20.95;100.00
73063;BME280;61230;46.328;19.972;2023-07-16T03:57:34;100409.66;;;21.02;100.00
73063;BME280;61230;46.328;19.972;2023-07-16T04:00:04;100406.34;;;21.00;100.00
73063;BME280;61230;46.328;19.972;2023-07-16T04:02:40;100404.97;;;21.11;100.00
73063;BME280;61230;46.328;19.972;2023-07-16T04:05:10;100412.16;;;21.17;100.00
73063;BME280;61230;46.328;19.972;2023-07-16T04:07:37;100417.03;;;21.27;99.75
73063;BME280;61230;46.328;19.972;2023-07-16T04:10:05;100417.88;;;21.27;100.00
73063;BME280;61230;46.328;19.972;2023-07-16T04:12:34;100416.41;;;21.38;100.00
73063;BME280;61230;46.328;19.972;2023-07-16T04:15:07;100406.91;;;21.42;100.00
73063;BME280;61230;46.328;19.972;2023-07-16T04:17:37;100417.63;;;21.48;100.00
73063;BME280;61230;46.328;19.972;2023-07-16T04:20:05;100425.00;;;21.53;100.00
73063;BME280;61230;46.328;19.972;2023-07-16T04:22:34;100420.88;;;21.57;100.00
73063;BME280;61230;46.328;19.972;2023-07-16T04:25:03;100414.47;;;21.58;100.00
73063;BME280;61230;46.328;19.972;2023-07-16T04:27:31;100417.97;;;21.65;100.00
73063;BME280;61230;46.328;19.972;2023-07-16T04:29:59;100421.84;;;21.69;100.00
73063;BME280;61230;46.328;19.972;2023-07-16T04:32:27;100428.00;;;21.76;100.00
73063;BME280;61230;46.328;19.972;2023-07-16T04:34:54;100420.31;;;21.86;100.00
73063;BME280;61230;46.328;19.972;2023-07-16T04:37:22;100420.47;;;22.04;100.00
73063;BME280;61230;46.328;19.972;2023-07-16T04:39:50;100429.84;;;22.20;99.82
73063;BME280;61230;46.328;19.972;2023-07-16T04:42:18;100428.78;;;22.27;99.71
73063;BME280;61230;46.328;19.972;2023-07-16T04:44:45;100433.06;;;22.35;99.61
73063;BME280;61230;46.328;19.972;2023-07-16T04:47:14;100399.09;;;22.22;99.21
73063;BME280;61230;46.328;19.972;2023-07-16T04:49:42;100440.53;;;22.58;98.60
73063;BME280;61230;46.328;19.972;2023-07-16T04:52:10;100436.78;;;22.65;98.21
73063;BME280;61230;46.328;19.972;2023-07-16T04:54:40;100435.47;;;22.74;97.84
73063;BME280;61230;46.328;19.972;2023-07-16T04:57:08;100442.59;;;22.87;97.32
73063;BME280;61230;46.328;19.972;2023-07-16T04:59:35;100438.34;;;22.98;97.07
73063;BME280;61230;46.328;19.972;2023-07-16T05:02:04;100446.06;;;23.12;96.82
73063;BME280;61230;46.328;19.972;2023-07-16T05:04:36;100444.06;;;23.26;96.25
73063;BME280;61230;46.328;19.972;2023-07-16T05:07:04;100411.91;;;23.19;95.95
73063;BME280;61230;46.328;19.972;2023-07-16T05:09:35;100442.09;;;23.58;95.09
73063;BME280;61230;46.328;19.972;2023-07-16T05:12:03;100449.78;;;23.72;94.39
73063;BME280;61230;46.328;19.972;2023-07-16T05:14:46;100454.91;;;23.92;93.44
73063;BME280;61230;46.328;19.972;2023-07-16T05:17:14;100446.53;;;24.00;92.80
73063;BME280;61230;46.328;19.972;2023-07-16T05:19:42;100459.94;;;24.18;92.04
73063;BME280;61230;46.328;19.972;2023-07-16T05:22:12;100447.34;;;24.30;91.23
73063;BME280;61230;46.328;19.972;2023-07-16T05:24:40;100445.88;;;24.46;90.54
73063;BME280;61230;46.328;19.972;2023-07-16T05:27:08;100408.88;;;24.30;89.83
73063;BME280;61230;46.328;19.972;2023-07-16T05:29:35;100448.03;;;24.67;89.25
73063;BME280;61230;46.328;19.972;2023-07-16T05:32:04;100437.03;;;24.69;89.03
73063;BME280;61230;46.328;19.972;2023-07-16T05:34:33;100454.66;;;24.83;87.88
73063;BME280;61230;46.328;19.972;2023-07-16T05:37:01;100456.16;;;25.02;87.42
73063;BME280;61230;46.328;19.972;2023-07-16T05:39:28;100410.63;;;24.89;86.80
73063;BME280;61230;46.328;19.972;2023-07-16T05:41:56;100456.63;;;25.34;86.10
73063;BME280;61230;46.328;19.972;2023-07-16T05:44:24;100457.22;;;25.47;85.12
73063;BME280;61230;46.328;19.972;2023-07-16T05:46:51;100428.28;;;25.43;83.97
73063;BME280;61230;46.328;19.972;2023-07-16T05:49:19;100434.91;;;25.63;83.15
73063;BME280;61230;46.328;19.972;2023-07-16T05:51:48;100469.31;;;25.85;83.51
73063;BME280;61230;46.328;19.972;2023-07-16T05:54:16;100464.47;;;25.98;80.84
73063;BME280;61230;46.328;19.972;2023-07-16T05:56:44;100469.81;;;26.10;79.42
73063;BME280;61230;46.328;19.972;2023-07-16T05:59:12;100478.13;;;26.20;79.10
73063;BME280;61230;46.328;19.972;2023-07-16T06:01:40;100465.06;;;26.28;78.08
73063;BME280;61230;46.328;19.972;2023-07-16T06:04:07;100469.09;;;26.43;77.40
73063;BME280;61230;46.328;19.972;2023-07-16T06:06:35;100464.13;;;26.51;77.26
73063;BME280;61230;46.328;19.972;2023-07-16T06:09:03;100461.13;;;26.64;76.66
73063;BME280;61230;46.328;19.972;2023-07-16T06:11:32;100463.91;;;26.69;76.15
73063;BME280;61230;46.328;19.972;2023-07-16T06:14:00;100454.81;;;26.75;75.62
73063;BME280;61230;46.328;19.972;2023-07-16T06:16:28;100467.78;;;27.07;74.87
73063;BME280;61230;46.328;19.972;2023-07-16T06:18:56;100469.97;;;27.10;74.54
73063;BME280;61230;46.328;19.972;2023-07-16T06:21:23;100477.59;;;27.13;74.69
73063;BME280;61230;46.328;19.972;2023-07-16T06:23:51;100476.00;;;27.17;74.08
73063;BME280;61230;46.328;19.972;2023-07-16T06:26:19;100477.78;;;27.28;73.76
73063;BME280;61230;46.328;19.972;2023-07-16T06:28:47;100473.78;;;27.47;73.19
73063;BME280;61230;46.328;19.972;2023-07-16T06:31:17;100479.00;;;27.54;72.48
73063;BME280;61230;46.328;19.972;2023-07-16T06:33:45;100475.56;;;27.58;72.43
73063;BME280;61230;46.328;19.972;2023-07-16T06:36:14;100473.91;;;27.79;72.16
73063;BME280;61230;46.328;19.972;2023-07-16T06:38:42;100479.78;;;27.92;71.62
73063;BME280;61230;46.328;19.972;2023-07-16T06:41:11;100481.66;;;28.14;70.56
73063;BME280;61230;46.328;19.972;2023-07-16T06:43:39;100477.84;;;28.10;70.44
73063;BME280;61230;46.328;19.972;2023-07-16T06:46:07;100464.72;;;28.23;69.97
73063;BME280;61230;46.328;19.972;2023-07-16T06:48:35;100470.06;;;28.45;69.59
73063;BME280;61230;46.328;19.972;2023-07-16T06:51:03;100471.25;;;28.54;69.16
73063;BME280;61230;46.328;19.972;2023-07-16T06:53:32;100471.94;;;28.66;68.52
73063;BME280;61230;46.328;19.972;2023-07-16T06:56:01;100465.28;;;28.84;67.91
73063;BME280;61230;46.328;19.972;2023-07-16T06:58:32;100461.88;;;28.98;67.60
73063;BME280;61230;46.328;19.972;2023-07-16T07:01:03;100460.00;;;29.04;67.36
73063;BME280;61230;46.328;19.972;2023-07-16T07:03:30;100467.91;;;29.11;66.42
73063;BME280;61230;46.328;19.972;2023-07-16T07:06:04;100456.44;;;29.40;65.84
73063;BME280;61230;46.328;19.972;2023-07-16T07:08:32;100463.28;;;29.43;65.72
73063;BME280;61230;46.328;19.972;2023-07-16T07:10:59;100464.97;;;29.59;65.26
73063;BME280;61230;46.328;19.972;2023-07-16T07:13:27;100432.63;;;29.42;64.26
73063;BME280;61230;46.328;19.972;2023-07-16T07:15:57;100462.25;;;29.54;63.97
73063;BME280;61230;46.328;19.972;2023-07-16T07:18:25;100422.12;;;29.66;63.38
73063;BME280;61230;46.328;19.972;2023-07-16T07:20:53;100459.44;;;29.96;62.94
73063;BME280;61230;46.328;19.972;2023-07-16T07:23:21;100453.50;;;30.04;62.35
73063;BME280;61230;46.328;19.972;2023-07-16T07:25:49;100454.59;;;30.23;62.33
73063;BME280;61230;46.328;19.972;2023-07-16T07:28:19;100461.47;;;30.41;61.17
73063;BME280;61230;46.328;19.972;2023-07-16T07:30:47;100431.81;;;30.29;60.82
73063;BME280;61230;46.328;19.972;2023-07-16T07:33:15;100457.66;;;30.47;59.72
73063;BME280;61230;46.328;19.972;2023-07-16T07:35:43;100451.97;;;30.73;59.52
73063;BME280;61230;46.328;19.972;2023-07-16T07:38:11;100455.50;;;30.79;59.21
73063;BME280;61230;46.328;19.972;2023-07-16T07:40:38;100418.81;;;30.87;58.84
73063;BME280;61230;46.328;19.972;2023-07-16T07:43:06;100444.06;;;31.02;58.59
73063;BME280;61230;46.328;19.972;2023-07-16T07:45:34;100445.94;;;31.17;58.12
73063;BME280;61230;46.328;19.972;2023-07-16T07:48:01;100442.91;;;31.39;58.26
73063;BME280;61230;46.328;19.972;2023-07-16T07:50:29;100450.25;;;31.48;58.42
73063;BME280;61230;46.328;19.972;2023-07-16T07:52:58;100444.53;;;31.45;56.60
73063;BME280;61230;46.328;19.972;2023-07-16T07:55:25;100413.00;;;31.28;56.66
73063;BME280;61230;46.328;19.972;2023-07-16T07:57:53;100447.19;;;31.65;56.00
73063;BME280;61230;46.328;19.972;2023-07-16T08:00:24;100448.72;;;31.86;55.76
73063;BME280;61230;46.328;19.972;2023-07-16T08:02:53;100429.66;;;31.86;55.49
73063;BME280;61230;46.328;19.972;2023-07-16T08:05:21;100447.88;;;31.96;54.50
73063;BME280;61230;46.328;19.972;2023-07-16T08:07:48;100455.13;;;32.15;54.37
73063;BME280;61230;46.328;19.972;2023-07-16T08:10:16;100447.34;;;32.37;54.38
73063;BME280;61230;46.328;19.972;2023-07-16T08:12:44;100457.34;;;32.47;54.02
73063;BME280;61230;46.328;19.972;2023-07-16T08:15:12;100453.31;;;32.39;52.74
73063;BME280;61230;46.328;19.972;2023-07-16T08:17:43;100444.41;;;32.68;51.42
73063;BME280;61230;46.328;19.972;2023-07-16T08:20:12;100448.09;;;32.82;51.91
73063;BME280;61230;46.328;19.972;2023-07-16T08:22:43;100445.03;;;32.88;51.96
73063;BME280;61230;46.328;19.972;2023-07-16T08:25:12;100447.37;;;33.00;49.75
73063;BME280;61230;46.328;19.972;2023-07-16T08:27:39;100450.59;;;33.07;49.86
73063;BME280;61230;46.328;19.972;2023-07-16T08:30:07;100449.28;;;33.28;49.82
73063;BME280;61230;46.328;19.972;2023-07-16T08:32:36;100447.56;;;33.37;48.96
73063;BME280;61230;46.328;19.972;2023-07-16T08:35:04;100413.75;;;33.10;49.46
73063;BME280;61230;46.328;19.972;2023-07-16T08:37:32;100441.38;;;33.27;48.95
73063;BME280;61230;46.328;19.972;2023-07-16T08:40:00;100448.50;;;33.46;47.71
73063;BME280;61230;46.328;19.972;2023-07-16T08:42:29;100434.25;;;33.54;46.99
73063;BME280;61230;46.328;19.972;2023-07-16T08:45:00;100442.31;;;33.65;45.95
73063;BME280;61230;46.328;19.972;2023-07-16T08:47:29;100442.72;;;33.77;45.50
73063;BME280;61230;46.328;19.972;2023-07-16T08:49:57;100442.72;;;33.95;45.88
73063;BME280;61230;46.328;19.972;2023-07-16T08:52:29;100448.34;;;34.04;43.19
73063;BME280;61230;46.328;19.972;2023-07-16T08:54:59;100433.53;;;34.10;43.28
73063;BME280;61230;46.328;19.972;2023-07-16T08:57:32;100443.87;;;34.13;43.12
73063;BME280;61230;46.328;19.972;2023-07-16T09:00:01;100438.31;;;34.37;42.35
73063;BME280;61230;46.328;19.972;2023-07-16T09:02:30;100439.16;;;34.19;43.28
73063;BME280;61230;46.328;19.972;2023-07-16T09:04:58;100437.09;;;34.43;40.84
73063;BME280;61230;46.328;19.972;2023-07-16T09:07:26;100436.91;;;34.58;41.92
73063;BME280;61230;46.328;19.972;2023-07-16T09:09:55;100436.09;;;34.57;41.63
73063;BME280;61230;46.328;19.972;2023-07-16T09:12:26;100433.13;;;34.54;40.94
73063;BME280;61230;46.328;19.972;2023-07-16T09:14:55;100433.09;;;34.73;41.77
73063;BME280;61230;46.328;19.972;2023-07-16T09:17:25;100431.31;;;34.95;41.83
73063;BME280;61230;46.328;19.972;2023-07-16T09:19:54;100427.22;;;35.25;41.20
73063;BME280;61230;46.328;19.972;2023-07-16T09:22:22;100429.75;;;35.22;41.16
73063;BME280;61230;46.328;19.972;2023-07-16T09:24:50;100430.88;;;35.20;40.84
73063;BME280;61230;46.328;19.972;2023-07-16T09:27:17;100434.72;;;35.33;40.52
73063;BME280;61230;46.328;19.972;2023-07-16T09:29:46;100436.44;;;35.29;40.54
73063;BME280;61230;46.328;19.972;2023-07-16T09:32:17;100433.59;;;35.34;40.72
73063;BME280;61230;46.328;19.972;2023-07-16T09:34:49;100430.03;;;35.34;41.01
73063;BME280;61230;46.328;19.972;2023-07-16T09:37:18;100424.47;;;35.52;39.07
73063;BME280;61230;46.328;19.972;2023-07-16T09:39:46;100427.84;;;35.22;40.51
73063;BME280;61230;46.328;19.972;2023-07-16T09:42:14;100423.56;;;35.43;39.99
73063;BME280;61230;46.328;19.972;2023-07-16T09:44:47;100423.66;;;35.52;40.03
73063;BME280;61230;46.328;19.972;2023-07-16T09:47:18;100424.06;;;35.32;40.22
73063;BME280;61230;46.328;19.972;2023-07-16T09:49:46;100430.03;;;35.74;39.50
73063;BME280;61230;46.328;19.972;2023-07-16T09:52:14;100424.97;;;35.82;39.67
73063;BME280;61230;46.328;19.972;2023-07-16T09:54:45;100428.66;;;35.99;39.50
73063;BME280;61230;46.328;19.972;2023-07-16T09:57:14;100420.88;;;35.93;39.24
73063;BME280;61230;46.328;19.972;2023-07-16T09:59:43;100414.34;;;35.66;39.43
73063;BME280;61230;46.328;19.972;2023-07-16T10:02:11;100402.66;;;35.74;39.01
73063;BME280;61230;46.328;19.972;2023-07-16T10:04:39;100422.56;;;36.16;38.71
73063;BME280;61230;46.328;19.972;2023-07-16T10:07:26;100415.06;;;36.08;38.01
73063;BME280;61230;46.328;19.972;2023-07-16T10:09:56;100404.84;;;36.58;36.81
73063;BME280;61230;46.328;19.972;2023-07-16T10:12:25;100407.13;;;36.20;36.66
73063;BME280;61230;46.328;19.972;2023-07-16T10:14:56;100404.22;;;36.47;34.92
73063;BME280;61230;46.328;19.972;2023-07-16T10:17:31;100398.41;;;36.62;34.66
73063;BME280;61230;46.328;19.972;2023-07-16T10:20:01;100391.84;;;36.50;35.50
73063;BME280;61230;46.328;19.972;2023-07-16T10:22:38;100392.91;;;36.62;35.37
73063;BME280;61230;46.328;19.972;2023-07-16T10:25:10;100373.34;;;36.11;36.44
73063;BME280;61230;46.328;19.972;2023-07-16T10:27:38;100394.88;;;36.70;35.56
73063;BME280;61230;46.328;19.972;2023-07-16T10:30:06;100394.81;;;36.84;35.18
73063;BME280;61230;46.328;19.972;2023-07-16T10:32:35;100390.38;;;36.97;34.95
73063;BME280;61230;46.328;19.972;2023-07-16T10:35:04;100363.13;;;37.09;34.82
73063;BME280;61230;46.328;19.972;2023-07-16T10:37:32;100384.69;;;37.41;35.57
73063;BME280;61230;46.328;19.972;2023-07-16T10:40:02;100365.03;;;37.00;36.28
73063;BME280;61230;46.328;19.972;2023-07-16T10:42:32;100381.88;;;37.15;35.62
73063;BME280;61230;46.328;19.972;2023-07-16T10:45:03;100376.56;;;37.19;35.43
73063;BME280;61230;46.328;19.972;2023-07-16T10:47:36;100371.06;;;37.19;35.09
73063;BME280;61230;46.328;19.972;2023-07-16T10:50:07;100372.81;;;37.06;35.03
73063;BME280;61230;46.328;19.972;2023-07-16T10:52:36;100375.44;;;37.20;35.30
73063;BME280;61230;46.328;19.972;2023-07-16T10:55:05;100346.88;;;37.38;34.77
73063;BME280;61230;46.328;19.972;2023-07-16T10:57:33;100377.47;;;36.66;35.44
73063;BME280;61230;46.328;19.972;2023-07-16T11:00:01;100349.25;;;36.21;34.85
73063;BME280;61230;46.328;19.972;2023-07-16T11:02:29;100368.38;;;36.57;34.90
73063;BME280;61230;46.328;19.972;2023-07-16T11:04:57;100360.66;;;36.99;35.59
73063;BME280;61230;46.328;19.972;2023-07-16T11:07:28;100360.25;;;37.22;35.38
73063;BME280;61230;46.328;19.972;2023-07-16T11:09:56;100360.53;;;37.69;35.12
73063;BME280;61230;46.328;19.972;2023-07-16T11:12:24;100357.97;;;38.07;33.51
73063;BME280;61230;46.328;19.972;2023-07-16T11:14:54;100359.09;;;38.40;32.23
73063;BME280;61230;46.328;19.972;2023-07-16T11:17:24;100357.28;;;37.50;33.07
73063;BME280;61230;46.328;19.972;2023-07-16T11:20:00;100357.34;;;36.79;33.17
73063;BME280;61230;46.328;19.972;2023-07-16T11:22:28;100357.81;;;37.04;33.60
73063;BME280;61230;46.328;19.972;2023-07-16T11:24:57;100360.91;;;37.19;33.31
73063;BME280;61230;46.328;19.972;2023-07-16T11:27:31;100359.22;;;37.49;32.66
73063;BME280;61230;46.328;19.972;2023-07-16T11:30:00;100357.31;;;37.92;31.88
73063;BME280;61230;46.328;19.972;2023-07-16T11:32:43;100353.75;;;38.35;31.96
73063;BME280;61230;46.328;19.972;2023-07-16T11:35:18;100359.22;;;37.83;31.10
73063;BME280;61230;46.328;19.972;2023-07-16T11:37:46;100363.09;;;37.48;31.60
73063;BME280;61230;46.328;19.972;2023-07-16T11:40:18;100334.00;;;36.60;31.85
73063;BME280;61230;46.328;19.972;2023-07-16T11:42:46;100368.19;;;36.31;33.46
73063;BME280;61230;46.328;19.972;2023-07-16T11:45:20;100338.53;;;36.64;32.90
73063;BME280;61230;46.328;19.972;2023-07-16T11:47:49;100346.69;;;36.78;32.82
73063;BME280;61230;46.328;19.972;2023-07-16T11:50:17;100348.50;;;36.91;33.25
73063;BME280;61230;46.328;19.972;2023-07-16T11:52:54;100348.44;;;36.74;33.82
73063;BME280;61230;46.328;19.972;2023-07-16T11:55:23;100351.06;;;36.26;35.34
73063;BME280;61230;46.328;19.972;2023-07-16T11:57:50;100345.34;;;36.67;34.38
73063;BME280;61230;46.328;19.972;2023-07-16T12:00:19;100336.81;;;36.15;34.93
73063;BME280;61230;46.328;19.972;2023-07-16T12:02:47;100331.87;;;36.04;35.16
73063;BME280;61230;46.328;19.972;2023-07-16T12:05:21;100355.44;;;35.91;35.98
73063;BME280;61230;46.328;19.972;2023-07-16T12:08:08;100341.59;;;36.10;35.74
73063;BME280;61230;46.328;19.972;2023-07-16T12:10:41;100336.09;;;36.94;34.08
73063;BME280;61230;46.328;19.972;2023-07-16T12:13:09;100333.78;;;37.18;33.75
73063;BME280;61230;46.328;19.972;2023-07-16T12:15:37;100334.34;;;36.58;35.55
73063;BME280;61230;46.328;19.972;2023-07-16T12:18:05;100336.81;;;36.02;35.52
73063;BME280;61230;46.328;19.972;2023-07-16T12:20:34;100318.00;;;35.64;35.24
73063;BME280;61230;46.328;19.972;2023-07-16T12:23:02;100336.81;;;35.80;35.24
73063;BME280;61230;46.328;19.972;2023-07-16T12:25:35;100331.25;;;36.29;34.46
73063;BME280;61230;46.328;19.972;2023-07-16T12:28:03;100330.03;;;35.99;34.88
73063;BME280;61230;46.328;19.972;2023-07-16T12:30:30;100303.66;;;35.32;34.85
73063;BME280;61230;46.328;19.972;2023-07-16T12:32:58;100307.84;;;35.15;34.76
73063;BME280;61230;46.328;19.972;2023-07-16T12:35:29;100332.22;;;35.26;35.46
73063;BME280;61230;46.328;19.972;2023-07-16T12:37:56;100322.94;;;35.76;35.08
73063;BME280;61230;46.328;19.972;2023-07-16T12:40:29;100330.28;;;36.33;34.89
73063;BME280;61230;46.328;19.972;2023-07-16T12:42:57;100321.00;;;36.74;34.90
73063;BME280;61230;46.328;19.972;2023-07-16T12:45:24;100323.88;;;37.00;34.01
73063;BME280;61230;46.328;19.972;2023-07-16T12:47:52;100312.00;;;36.82;34.32
73063;BME280;61230;46.328;19.972;2023-07-16T12:50:20;100322.25;;;36.99;34.38
73063;BME280;61230;46.328;19.972;2023-07-16T12:52:47;100316.16;;;37.10;34.01